Fort Robinson, Pennsylvania
Current Conditions -  °F | °C
As of 6:56 AM on Thursday 18 Dec 2014 (Local Time) from KCXY Reporting Station
Overcast Overcast  
Wind Chill: 26°   Ceiling: 4000
Heat Index: 34°   Visibility: 10mi
Dew Point: 19°   Wind: 10mph
Humidity: 54%   Direction: 280°W
Pressure: 30.09"   Gusts: NA
Location:  40.3674°N, 77.4381°W
Report Text: KCXY 181156Z 28009KT 10SM OVC040 01/M07 A3009 RMK AO2 SLP195 T00111072 10028 20011 53010
Loading
Personal Weather Stations






























Interactive Weather Map New forecast layout! Learn more

10-Day Weather Forecast

Advertisements
Track Severe Weather on mobile